createdAt,value
2023-04-02T00:02:26.348Z,9.30
2023-04-02T00:05:11.535Z,11.35
2023-04-02T00:07:44.887Z,12.10
2023-04-02T00:10:29.162Z,12.77
2023-04-02T00:13:06.075Z,10.52
2023-04-02T00:15:37.094Z,10.02
2023-04-02T00:18:08.045Z,13.50
2023-04-02T00:20:39.589Z,13.05
2023-04-02T00:23:10.752Z,11.90
2023-04-02T00:25:43.354Z,16.52
2023-04-02T00:28:18.236Z,15.02
2023-04-02T00:30:52.863Z,13.85
2023-04-02T00:33:24.270Z,8.68
2023-04-02T00:35:56.267Z,7.50
2023-04-02T00:38:28.890Z,9.65
2023-04-02T00:41:00.478Z,9.40
2023-04-02T00:43:36.086Z,11.18
2023-04-02T00:46:11.157Z,9.00
2023-04-02T00:48:45.321Z,12.10
2023-04-02T00:51:18.130Z,13.77
2023-04-02T00:53:49.806Z,9.90
2023-04-02T00:56:23.100Z,9.57
2023-04-02T00:58:58.708Z,9.75
2023-04-02T01:01:30.292Z,11.98
2023-04-02T01:04:01.588Z,9.75
2023-04-02T01:06:34.423Z,11.40
2023-04-02T01:09:11.763Z,12.80
2023-04-02T01:11:56.413Z,15.05
2023-04-02T01:14:37.052Z,9.82
2023-04-02T01:17:11.678Z,11.13
2023-04-02T01:19:52.800Z,7.38
2023-04-02T01:22:26.246Z,9.98
2023-04-02T01:25:00.038Z,9.70
2023-04-02T01:27:32.182Z,9.98
2023-04-02T01:30:07.667Z,8.40
2023-04-02T01:32:38.307Z,11.70
2023-04-02T01:35:09.253Z,10.63
2023-04-02T01:37:45.110Z,10.23
2023-04-02T01:40:24.020Z,12.38
2023-04-02T01:42:59.065Z,9.70
2023-04-02T01:45:32.539Z,8.63
2023-04-02T01:48:03.170Z,11.35
2023-04-02T01:50:37.358Z,8.02
2023-04-02T01:53:08.989Z,11.82
2023-04-02T01:55:43.392Z,14.43
2023-04-02T01:58:14.431Z,7.82
2023-04-02T02:00:49.947Z,12.80
2023-04-02T02:03:20.817Z,11.73
2023-04-02T02:05:51.249Z,12.00
2023-04-02T02:08:29.503Z,10.15
2023-04-02T02:11:00.442Z,11.48
2023-04-02T02:13:32.442Z,10.65
2023-04-02T02:16:06.979Z,15.75
2023-04-02T02:18:37.416Z,14.00
2023-04-02T02:21:08.680Z,16.38
2023-04-02T02:26:10.414Z,13.65
2023-04-02T02:28:42.240Z,13.20
2023-04-02T02:31:18.005Z,14.60
2023-04-02T02:33:50.767Z,15.57
2023-04-02T02:36:25.644Z,13.38
2023-04-02T02:38:59.399Z,11.18
2023-04-02T02:41:32.127Z,13.07
2023-04-02T02:44:04.554Z,13.55
2023-04-02T02:46:38.381Z,11.23
2023-04-02T02:49:09.753Z,15.00
2023-04-02T02:54:10.748Z,13.25
2023-04-02T02:56:44.125Z,11.05
2023-04-02T02:59:14.983Z,10.93
2023-04-02T03:01:48.403Z,7.53
2023-04-02T03:04:23.921Z,13.77
2023-04-02T03:06:55.195Z,16.52
2023-04-02T03:11:57.374Z,13.18
2023-04-02T03:14:32.486Z,11.27
2023-04-02T03:17:08.946Z,16.05
2023-04-02T03:19:41.989Z,16.83
2023-04-02T03:22:16.053Z,11.90
2023-04-02T03:24:51.108Z,14.45
2023-04-02T03:27:23.948Z,13.93
2023-04-02T03:29:58.078Z,11.20
2023-04-02T03:32:33.347Z,10.90
2023-04-02T03:35:05.304Z,16.23
2023-04-02T03:37:38.851Z,14.05
2023-04-02T03:40:12.486Z,16.92
2023-04-02T03:42:44.576Z,10.23
2023-04-02T03:45:17.963Z,14.80
2023-04-02T03:47:53.367Z,7.50
2023-04-02T03:50:27.354Z,13.82
2023-04-02T03:52:57.664Z,10.18
2023-04-02T03:55:29.735Z,12.52
2023-04-02T03:58:05.407Z,12.65
2023-04-02T04:00:39.031Z,13.82
2023-04-02T04:03:15.288Z,14.10
2023-04-02T04:05:49.500Z,12.45
2023-04-02T04:08:21.439Z,13.43
2023-04-02T04:10:54.624Z,12.40
2023-04-02T04:13:29.454Z,10.57
2023-04-02T04:16:03.374Z,12.93
2023-04-02T04:18:38.502Z,8.63
2023-04-02T04:21:15.725Z,15.05
2023-04-02T04:23:51.662Z,12.48
2023-04-02T04:26:24.897Z,7.60
2023-04-02T04:29:00.805Z,8.80
2023-04-02T04:31:34.222Z,13.82
2023-04-02T04:34:10.517Z,20.38
2023-04-02T04:36:54.416Z,8.48
2023-04-02T04:39:29.900Z,14.82
2023-04-02T04:42:01.544Z,18.05
2023-04-02T04:44:36.706Z,10.45
2023-04-02T04:47:09.912Z,10.88
2023-04-02T04:49:46.162Z,16.20
2023-04-02T04:52:20.768Z,10.13
2023-04-02T04:54:51.523Z,13.60
2023-04-02T04:57:26.322Z,14.07
2023-04-02T05:00:08.738Z,6.30
2023-04-02T05:02:43.183Z,13.30
2023-04-02T05:05:23.813Z,11.32
2023-04-02T05:07:55.088Z,7.32
2023-04-02T05:10:31.127Z,15.25
2023-04-02T05:13:05.843Z,13.35
2023-04-02T05:15:37.515Z,10.98
2023-04-02T05:18:15.743Z,16.23
2023-04-02T05:20:51.825Z,13.07
2023-04-02T05:23:24.878Z,7.32
2023-04-02T05:26:02.561Z,9.40
2023-04-02T05:28:35.772Z,9.48
2023-04-02T05:31:07.179Z,8.38
2023-04-02T05:36:12.188Z,4.80
2023-04-02T05:38:43.692Z,12.93
2023-04-02T05:41:21.168Z,12.10
2023-04-02T05:43:52.267Z,10.27
2023-04-02T05:46:27.487Z,5.32
2023-04-02T05:48:59.154Z,12.93
2023-04-02T05:51:34.654Z,10.82
2023-04-02T05:54:06.951Z,5.95
2023-04-02T05:56:39.656Z,8.60
2023-04-02T05:59:11.691Z,12.88
2023-04-02T06:01:45.808Z,10.35
2023-04-02T06:04:21.359Z,8.25
2023-04-02T06:06:57.287Z,11.00
2023-04-02T06:09:31.295Z,12.77
2023-04-02T06:12:04.188Z,11.75
2023-04-02T06:14:34.626Z,7.43
2023-04-02T06:17:05.038Z,13.38
2023-04-02T06:19:36.666Z,13.23
2023-04-02T06:22:15.705Z,9.82
2023-04-02T06:24:47.751Z,14.32
2023-04-02T06:27:23.110Z,15.25
2023-04-02T06:29:55.822Z,14.30
2023-04-02T06:32:28.656Z,11.88
2023-04-02T06:34:59.290Z,13.48
2023-04-02T06:37:35.283Z,11.60
2023-04-02T06:40:06.368Z,17.20
2023-04-02T06:42:38.269Z,9.85
2023-04-02T06:45:09.515Z,10.15
2023-04-02T06:50:12.061Z,9.32
2023-04-02T06:52:48.366Z,12.35
2023-04-02T06:55:30.223Z,8.63
2023-04-02T06:58:00.683Z,13.13
2023-04-02T07:00:34.162Z,19.08
2023-04-02T07:03:05.804Z,8.88
2023-04-02T07:05:36.301Z,14.32
2023-04-02T07:08:10.084Z,12.05
2023-04-02T07:10:40.392Z,10.93
2023-04-02T07:13:10.854Z,12.15
2023-04-02T07:15:41.164Z,6.85
2023-04-02T07:18:13.207Z,10.88
2023-04-02T07:20:43.556Z,8.63
2023-04-02T07:23:17.110Z,14.23
2023-04-02T07:25:47.628Z,12.32
2023-04-02T07:28:19.167Z,11.80
2023-04-02T07:30:50.282Z,8.35
2023-04-02T07:33:21.747Z,10.40
2023-04-02T07:38:24.769Z,6.15
2023-04-02T07:40:55.093Z,10.52
2023-04-02T07:43:25.419Z,9.38
2023-04-02T07:45:55.699Z,9.80
2023-04-02T07:48:26.034Z,8.70
2023-04-02T07:50:56.311Z,6.90
2023-04-02T07:53:34.113Z,10.93
2023-04-02T07:56:05.183Z,8.10
2023-04-02T07:58:36.250Z,12.13
2023-04-02T08:01:06.549Z,10.85
2023-04-02T08:03:37.069Z,9.68
2023-04-02T08:06:07.511Z,5.95
2023-04-02T08:08:40.517Z,10.20
2023-04-02T08:11:11.027Z,10.68
2023-04-02T08:13:41.650Z,10.82
2023-04-02T08:16:12.127Z,8.25
2023-04-02T08:18:42.514Z,10.80
2023-04-02T08:21:16.371Z,14.73
2023-04-02T08:23:50.771Z,6.70
2023-04-02T08:26:22.194Z,10.52
2023-04-02T08:31:23.720Z,11.98
2023-04-02T08:33:54.375Z,6.70
2023-04-02T08:36:28.736Z,10.25
2023-04-02T08:39:02.183Z,4.88
2023-04-02T08:41:33.316Z,4.68
2023-04-02T08:44:13.718Z,8.40
2023-04-02T08:46:47.722Z,4.70
2023-04-02T08:49:20.697Z,6.35
2023-04-02T08:51:51.092Z,4.68
2023-04-02T08:54:27.810Z,7.15
2023-04-02T08:57:00.075Z,4.40
2023-04-02T08:59:35.217Z,4.88
2023-04-02T09:02:16.760Z,4.10
2023-04-02T09:04:47.181Z,8.63
2023-04-02T09:07:19.467Z,5.93
2023-04-02T09:09:53.034Z,7.32
2023-04-02T09:12:24.335Z,3.67
2023-04-02T09:17:26.007Z,5.47
2023-04-02T09:19:59.147Z,4.20
2023-04-02T09:22:30.335Z,6.25
2023-04-02T09:25:04.489Z,6.85
2023-04-02T09:27:36.075Z,7.05
2023-04-02T09:30:10.495Z,7.07
2023-04-02T09:32:48.255Z,4.70
2023-04-02T09:35:39.590Z,6.43
2023-04-02T09:38:21.180Z,6.55
2023-04-02T09:40:55.838Z,5.55
2023-04-02T09:43:28.283Z,2.42
2023-04-02T09:46:00.132Z,6.03
2023-04-02T09:48:32.980Z,4.70
2023-04-02T09:51:23.959Z,2.90
2023-04-02T09:53:55.536Z,6.70
2023-04-02T09:56:28.642Z,4.10
2023-04-02T09:59:09.130Z,4.55
2023-04-02T10:01:40.284Z,5.20
2023-04-02T10:04:30.664Z,5.07
2023-04-02T10:07:01.117Z,6.00
2023-04-02T10:09:32.647Z,7.40
2023-04-02T10:12:06.737Z,5.22
2023-04-02T10:14:39.295Z,5.15
2023-04-02T10:17:14.360Z,4.00
2023-04-02T10:19:46.368Z,2.92
2023-04-02T10:22:17.323Z,4.78
2023-04-02T10:24:47.869Z,4.30
2023-04-02T10:27:26.437Z,4.93
2023-04-02T10:30:05.647Z,4.95
2023-04-02T10:32:41.110Z,4.07
2023-04-02T10:35:14.719Z,6.50
2023-04-02T10:38:13.917Z,6.47
2023-04-02T10:40:46.669Z,3.20
2023-04-02T10:43:32.143Z,3.13
2023-04-02T10:46:09.659Z,5.53
2023-04-02T10:48:44.153Z,4.47
2023-04-02T10:51:17.330Z,2.88
2023-04-02T10:53:53.053Z,2.50
2023-04-02T10:56:24.311Z,2.38
2023-04-02T10:58:58.236Z,5.03
2023-04-02T11:01:32.175Z,6.40
2023-04-02T11:04:05.878Z,3.58
2023-04-02T11:06:38.871Z,5.72
2023-04-02T11:09:11.180Z,2.72
2023-04-02T11:11:43.539Z,3.70
2023-04-02T11:14:16.654Z,3.03
2023-04-02T11:16:52.049Z,3.30
2023-04-02T11:19:29.939Z,5.97
2023-04-02T11:24:50.160Z,6.47
2023-04-02T11:27:29.281Z,3.92
2023-04-02T11:30:06.969Z,5.80
2023-04-02T11:32:42.826Z,3.92
2023-04-02T11:35:28.917Z,3.90
2023-04-02T11:38:00.036Z,5.55
2023-04-02T11:40:45.644Z,5.80
2023-04-02T11:43:30.920Z,3.50
2023-04-02T11:46:02.414Z,4.68
2023-04-02T11:48:36.380Z,6.05
2023-04-02T11:51:14.274Z,4.72
2023-04-02T11:53:46.345Z,4.45
2023-04-02T11:56:24.088Z,4.68
2023-04-02T11:58:59.562Z,4.72
2023-04-02T12:01:46.393Z,3.30
2023-04-02T12:04:40.928Z,5.03
2023-04-02T12:07:26.893Z,5.50
2023-04-02T12:09:58.414Z,5.32
2023-04-02T12:12:30.560Z,4.70
2023-04-02T12:15:01.505Z,4.68
2023-04-02T12:17:33.050Z,5.85
2023-04-02T12:20:08.427Z,5.10
2023-04-02T12:22:42.708Z,5.82
2023-04-02T12:25:26.840Z,8.88
2023-04-02T12:28:08.165Z,8.98
2023-04-02T12:30:38.865Z,1.85
2023-04-02T12:33:30.818Z,4.82
2023-04-02T12:36:02.165Z,4.45
2023-04-02T12:41:06.564Z,2.72
2023-04-02T12:43:38.318Z,4.10
2023-04-02T12:46:10.204Z,6.07
2023-04-02T12:48:41.684Z,6.60
2023-04-02T12:51:13.889Z,6.60
2023-04-02T12:53:45.109Z,3.35
2023-04-02T12:56:25.269Z,2.67
2023-04-02T12:58:56.930Z,3.22
2023-04-02T13:01:28.467Z,3.25
2023-04-02T13:04:06.373Z,3.13
2023-04-02T13:09:08.141Z,4.50
2023-04-02T13:11:42.039Z,5.97
2023-04-02T13:14:20.360Z,6.03
2023-04-02T13:16:51.224Z,4.95
2023-04-02T13:19:25.139Z,2.88
2023-04-02T13:21:56.043Z,4.15
2023-04-02T13:24:27.089Z,2.78
2023-04-02T13:27:01.274Z,5.20
2023-04-02T13:29:32.219Z,3.92
2023-04-02T13:32:03.486Z,2.88
2023-04-02T13:34:34.082Z,3.97
2023-04-02T13:37:04.407Z,1.85
2023-04-02T13:39:34.769Z,2.33
2023-04-02T13:42:09.149Z,4.25
2023-04-02T13:44:40.070Z,6.20
2023-04-02T13:47:10.607Z,2.97
2023-04-02T13:49:40.934Z,2.15
2023-04-02T13:52:16.965Z,4.38
2023-04-02T13:54:49.079Z,2.67
2023-04-02T13:57:22.500Z,3.40
2023-04-02T13:59:52.924Z,2.83
2023-04-02T14:02:25.672Z,1.48
2023-04-02T14:04:58.459Z,3.88
2023-04-02T14:07:35.889Z,2.65
2023-04-02T14:10:15.012Z,3.25
2023-04-02T14:12:56.863Z,2.50
2023-04-02T14:15:32.515Z,1.88
2023-04-02T14:18:14.791Z,3.75
2023-04-02T14:20:51.675Z,3.00
2023-04-02T14:23:29.639Z,2.45
2023-04-02T14:26:04.857Z,3.55
2023-04-02T14:28:43.038Z,4.75
2023-04-02T14:31:18.436Z,2.22
2023-04-02T14:33:53.222Z,3.03
2023-04-02T14:36:27.914Z,3.67
2023-04-02T14:38:59.227Z,2.38
2023-04-02T14:41:34.276Z,1.73
2023-04-02T14:44:08.582Z,1.77
2023-04-02T14:46:40.309Z,2.33
2023-04-02T14:49:20.799Z,3.70
2023-04-02T14:51:53.102Z,1.95
2023-04-02T14:54:26.341Z,2.33
2023-04-02T14:56:58.625Z,1.88
2023-04-02T14:59:34.493Z,2.80
2023-04-02T15:02:07.464Z,4.50
2023-04-02T15:04:40.866Z,1.70
2023-04-02T15:07:16.284Z,4.28
2023-04-02T15:09:50.729Z,2.53
2023-04-02T15:12:24.216Z,3.42
2023-04-02T15:14:58.598Z,3.53
2023-04-02T15:17:29.138Z,3.78
2023-04-02T15:20:02.541Z,2.05
2023-04-02T15:22:35.824Z,3.50
2023-04-02T15:25:14.369Z,4.30
2023-04-02T15:27:55.890Z,4.57
2023-04-02T15:30:29.660Z,2.08
2023-04-02T15:33:01.293Z,5.43
2023-04-02T15:35:39.102Z,3.33
2023-04-02T15:38:13.616Z,5.15
2023-04-02T15:40:50.175Z,5.97
2023-04-02T15:43:24.226Z,2.70
2023-04-02T15:46:09.039Z,2.33
2023-04-02T15:48:54.342Z,3.17
2023-04-02T15:51:30.264Z,4.30
2023-04-02T15:54:07.128Z,3.30
2023-04-02T15:56:43.875Z,4.18
2023-04-02T15:59:32.039Z,2.58
2023-04-02T16:02:10.772Z,2.78
2023-04-02T16:04:52.027Z,3.42
2023-04-02T16:07:32.327Z,5.40
2023-04-02T16:10:08.757Z,4.57
2023-04-02T16:12:40.837Z,6.57
2023-04-02T16:15:18.041Z,2.80
2023-04-02T16:17:53.908Z,3.20
2023-04-02T16:20:27.587Z,5.35
2023-04-02T16:23:01.436Z,5.65
2023-04-02T16:25:35.091Z,2.58
2023-04-02T16:28:10.845Z,5.38
2023-04-02T16:30:48.225Z,5.43
2023-04-02T16:33:27.979Z,5.22
2023-04-02T16:36:03.077Z,4.05
2023-04-02T16:38:40.576Z,4.65
2023-04-02T16:41:13.538Z,3.33
2023-04-02T16:43:47.590Z,4.55
2023-04-02T16:46:38.320Z,3.63
2023-04-02T16:49:16.098Z,1.92
2023-04-02T16:51:49.112Z,4.60
2023-04-02T16:54:21.743Z,3.05
2023-04-02T16:56:58.922Z,3.00
2023-04-02T16:59:34.376Z,4.35
2023-04-02T17:02:07.449Z,3.42
2023-04-02T17:04:52.729Z,4.03
2023-04-02T17:07:31.438Z,5.95
2023-04-02T17:10:06.104Z,4.20
2023-04-02T17:12:39.748Z,4.10
2023-04-02T17:15:24.778Z,3.83
2023-04-02T17:18:00.533Z,3.60
2023-04-02T17:20:31.354Z,3.50
2023-04-02T17:23:05.876Z,4.35
2023-04-02T17:25:38.773Z,4.95
2023-04-02T17:28:13.033Z,4.70
2023-04-02T17:30:46.180Z,3.80
2023-04-02T17:33:16.950Z,3.03
2023-04-02T17:35:51.473Z,3.58
2023-04-02T17:38:28.648Z,4.70
2023-04-02T17:41:03.172Z,5.13
2023-04-02T17:43:37.990Z,5.70
2023-04-02T17:46:10.440Z,5.05
2023-04-02T17:48:44.982Z,2.65
2023-04-02T17:51:19.035Z,4.15
2023-04-02T17:54:01.863Z,5.78
2023-04-02T17:56:43.024Z,6.45
2023-04-02T17:59:23.860Z,4.22
2023-04-02T18:01:57.593Z,4.72
2023-04-02T18:04:35.697Z,6.63
2023-04-02T18:07:12.367Z,3.90
2023-04-02T18:09:48.845Z,4.13
2023-04-02T18:12:28.530Z,4.57
2023-04-02T18:15:05.105Z,6.55
2023-04-02T18:17:42.381Z,3.90
2023-04-02T18:20:20.346Z,7.22
2023-04-02T18:22:56.498Z,12.98
2023-04-02T18:25:44.599Z,14.85
2023-04-02T18:28:26.709Z,8.95
2023-04-02T18:31:00.229Z,10.10
2023-04-02T18:33:38.377Z,8.75
2023-04-02T18:36:11.896Z,20.63
2023-04-02T18:38:46.638Z,16.00
2023-04-02T18:41:24.539Z,12.20
2023-04-02T18:46:33.836Z,5.55
2023-04-02T18:49:06.584Z,8.23
2023-04-02T18:51:39.238Z,6.82
2023-04-02T18:54:14.754Z,21.10
2023-04-02T18:56:45.815Z,20.23
2023-04-02T18:59:25.555Z,7.72
2023-04-02T19:02:00.007Z,21.63
2023-04-02T19:04:31.847Z,30.00
2023-04-02T19:07:06.666Z,21.75
2023-04-02T19:09:38.746Z,31.08
2023-04-02T19:12:16.699Z,13.13
2023-04-02T19:17:27.828Z,20.65
2023-04-02T19:20:01.065Z,14.60
2023-04-02T19:22:35.466Z,10.38
2023-04-02T19:25:17.856Z,7.85
2023-04-02T19:27:55.162Z,7.10
2023-04-02T19:30:38.167Z,11.10
2023-04-02T19:33:16.028Z,6.18
2023-04-02T19:35:48.537Z,5.97
2023-04-02T19:38:27.436Z,5.25
2023-04-02T19:41:02.214Z,7.55
2023-04-02T19:43:32.915Z,6.70
2023-04-02T19:46:04.699Z,7.93
2023-04-02T19:48:42.599Z,9.40
2023-04-02T19:51:13.109Z,11.27
2023-04-02T19:53:43.516Z,7.28
2023-04-02T19:56:13.990Z,7.43
2023-04-02T19:58:44.379Z,16.10
2023-04-02T20:01:14.827Z,9.88
2023-04-02T20:03:47.952Z,11.32
2023-04-02T20:06:18.508Z,9.18
2023-04-02T20:08:48.995Z,9.13
2023-04-02T20:11:19.530Z,8.30
2023-04-02T20:13:50.475Z,18.60
2023-04-02T20:16:21.022Z,17.60
2023-04-02T20:18:54.150Z,10.60
2023-04-02T20:21:24.569Z,8.77
2023-04-02T20:23:56.615Z,8.43
2023-04-02T20:26:27.781Z,7.63
2023-04-02T20:28:58.358Z,9.05
2023-04-02T20:31:28.893Z,11.15
2023-04-02T20:34:05.337Z,9.55
2023-04-02T20:36:36.167Z,7.63
2023-04-02T20:39:09.381Z,8.73
2023-04-02T20:41:39.707Z,20.55
2023-04-02T20:44:10.192Z,24.00
2023-04-02T20:46:40.637Z,17.67
2023-04-02T20:49:13.909Z,10.05
2023-04-02T20:51:44.298Z,8.40
2023-04-02T20:54:14.669Z,10.68
2023-04-02T20:56:45.673Z,7.88
2023-04-02T20:59:16.135Z,12.35
2023-04-02T21:01:46.515Z,8.60
2023-04-02T21:04:19.707Z,10.88
2023-04-02T21:06:50.071Z,12.98
2023-04-02T21:09:21.705Z,9.15
2023-04-02T21:11:52.104Z,8.18
2023-04-02T21:14:22.473Z,10.68
2023-04-02T21:16:52.777Z,11.70
2023-04-02T21:19:25.728Z,12.68
2023-04-02T21:21:57.838Z,8.40
2023-04-02T21:24:28.544Z,11.05
2023-04-02T21:27:01.647Z,10.93
2023-04-02T21:29:32.044Z,12.07
2023-04-02T21:32:08.316Z,15.90
2023-04-02T21:34:47.527Z,12.40
2023-04-02T21:37:17.853Z,11.82
2023-04-02T21:39:48.225Z,13.88
2023-04-02T21:42:18.661Z,17.98
2023-04-02T21:44:49.046Z,11.82
2023-04-02T21:47:19.441Z,12.10
2023-04-02T21:49:52.462Z,13.02
2023-04-02T21:52:23.179Z,10.02
2023-04-02T21:54:53.583Z,11.40
2023-04-02T21:57:23.933Z,11.90
2023-04-02T21:59:57.093Z,14.68
2023-04-02T22:02:27.765Z,12.77
2023-04-02T22:05:00.742Z,11.60
2023-04-02T22:07:31.409Z,12.20
2023-04-02T22:10:01.773Z,10.30
2023-04-02T22:12:32.078Z,10.00
2023-04-02T22:15:02.491Z,9.48
2023-04-02T22:17:32.810Z,8.90
2023-04-02T22:20:05.830Z,10.48
2023-04-02T22:22:36.343Z,10.65
2023-04-02T22:25:07.604Z,10.75
2023-04-02T22:27:37.936Z,9.25
2023-04-02T22:30:09.119Z,9.55
2023-04-02T22:32:40.457Z,11.70
2023-04-02T22:35:13.748Z,9.05
2023-04-02T22:37:44.369Z,11.70
2023-04-02T22:40:15.345Z,10.63
2023-04-02T22:42:46.845Z,10.05
2023-04-02T22:45:18.647Z,12.75
2023-04-02T22:47:49.074Z,13.45
2023-04-02T22:50:22.862Z,17.17
2023-04-02T22:52:53.187Z,11.77
2023-04-02T22:55:23.745Z,14.68
2023-04-02T22:57:54.072Z,13.77
2023-04-02T23:00:24.417Z,15.77
2023-04-02T23:02:54.787Z,14.15
2023-04-02T23:05:27.897Z,35.40
2023-04-02T23:07:58.293Z,17.63
2023-04-02T23:10:28.829Z,15.32
2023-04-02T23:12:59.476Z,13.05
2023-04-02T23:15:29.912Z,10.60
2023-04-02T23:18:00.271Z,12.13
2023-04-02T23:20:33.294Z,11.82
2023-04-02T23:23:03.643Z,12.85
2023-04-02T23:25:34.016Z,10.40
2023-04-02T23:28:04.348Z,10.65
2023-04-02T23:30:34.926Z,9.15
2023-04-02T23:33:05.451Z,8.93
2023-04-02T23:35:38.797Z,10.10
2023-04-02T23:38:10.090Z,8.68
2023-04-02T23:40:40.673Z,9.23
2023-04-02T23:43:11.199Z,11.32
2023-04-02T23:45:41.599Z,9.02
2023-04-02T23:48:11.977Z,8.68
2023-04-02T23:50:45.155Z,11.50
2023-04-02T23:53:16.698Z,9.88
2023-04-02T23:58:17.176Z,8.38
